Time;durP1;ratioP1;P1;durP2;ratioP2;P2;SDS_P1;SDS_P2;PMS_P1;PMS_P2;Temp;Humidity;BMP_temperature;BMP_pressure;BME280_temperature;BME280_humidity;BME280_pressure;Samples;Min_cycle;Max_cycle;Signal;HPM_P1;HPM_P2
2021/11/03 00:00:41;;;;;;;7.07;5.07;;;;;;;;;;5061052;28;20044;-79
2021/11/03 00:03:06;;;;;;;6.45;4.78;;;;;;;;;;5061224;28;20463;-79
2021/11/03 00:05:32;;;;;;;7.60;5.05;;;;;;;;;;5060630;28;20056;-79
2021/11/03 00:07:59;;;;;;;7.43;5.75;;;;;;;;;;5061136;28;20032;-79
2021/11/03 00:10:24;;;;;;;8.48;4.95;;;;;;;;;;5060530;28;20531;-79
2021/11/03 00:12:50;;;;;;;7.88;4.85;;;;;;;;;;5060844;28;20086;-79
2021/11/03 00:15:16;;;;;;;6.95;4.57;;;;;;;;;;5059815;28;20029;-79
2021/11/03 00:17:42;;;;;;;5.93;4.53;;;;;;;;;;5059377;28;20425;-79
2021/11/03 00:20:09;;;;;;;8.93;5.00;;;;;;;;;;5059378;28;20041;-79
2021/11/03 00:22:35;;;;;;;11.60;5.25;;;;;;;;;;5060202;28;20041;-79
2021/11/03 00:25:01;;;;;;;8.48;4.72;;;;;;;;;;5060951;28;20371;-79
2021/11/03 00:27:27;;;;;;;11.63;4.93;;;;;;;;;;5060887;28;20103;-79
2021/11/03 00:29:52;;;;;;;8.10;5.20;;;;;;;;;;5058869;28;20569;-79
2021/11/03 00:32:17;;;;;;;7.65;4.97;;;;;;;;;;5060917;28;20122;-79
2021/11/03 00:34:44;;;;;;;5.85;4.80;;;;;;;;;;5060476;28;20517;-79
2021/11/03 00:37:10;;;;;;;7.32;4.70;;;;;;;;;;5058434;28;20074;-79
2021/11/03 00:39:36;;;;;;;6.90;5.25;;;;;;;;;;5059678;28;20043;-79
2021/11/03 00:42:03;;;;;;;7.13;5.38;;;;;;;;;;5060535;28;20135;-79
2021/11/03 00:44:28;;;;;;;8.23;5.55;;;;;;;;;;5060104;28;20061;-79
2021/11/03 00:46:54;;;;;;;10.18;5.30;;;;;;;;;;5058988;28;20497;-78
2021/11/03 00:49:20;;;;;;;10.55;6.43;;;;;;;;;;5058751;28;20398;-79
2021/11/03 00:51:46;;;;;;;7.28;5.40;;;;;;;;;;5058205;28;20040;-79
2021/11/03 00:54:12;;;;;;;9.00;5.55;;;;;;;;;;5057020;28;20029;-79
2021/11/03 00:56:38;;;;;;;8.43;5.93;;;;;;;;;;5056318;28;20040;-79
2021/11/03 00:59:04;;;;;;;9.30;5.85;;;;;;;;;;5057653;28;20374;-78
2021/11/03 01:01:31;;;;;;;8.35;5.45;;;;;;;;;;5055921;28;20502;-79
2021/11/03 01:03:57;;;;;;;6.43;5.40;;;;;;;;;;5054862;28;20024;-79
2021/11/03 01:06:23;;;;;;;8.38;5.85;;;;;;;;;;5055970;28;20092;-78
2021/11/03 01:08:49;;;;;;;7.35;6.18;;;;;;;;;;5056812;28;20060;-79
2021/11/03 01:11:14;;;;;;;16.27;6.43;;;;;;;;;;5055601;28;20037;-79
2021/11/03 01:13:40;;;;;;;6.13;5.03;;;;;;;;;;5059502;28;20029;-79
2021/11/03 01:16:05;;;;;;;8.00;4.78;;;;;;;;;;5075508;28;20028;-79
2021/11/03 01:18:32;;;;;;;6.40;4.90;;;;;;;;;;5076154;28;20032;-79
2021/11/03 01:20:59;;;;;;;11.52;6.13;;;;;;;;;;5075912;28;20482;-78
2021/11/03 01:23:25;;;;;;;12.27;6.25;;;;;;;;;;5065602;28;20124;-79
2021/11/03 01:25:53;;;;;;;12.70;6.50;;;;;;;;;;5054258;28;20029;-79
2021/11/03 01:28:20;;;;;;;10.02;6.28;;;;;;;;;;5056023;28;20048;-78
2021/11/03 01:30:46;;;;;;;8.00;5.60;;;;;;;;;;5054767;28;20029;-78
2021/11/03 01:33:14;;;;;;;9.02;6.35;;;;;;;;;;5054317;28;20521;-79
2021/11/03 01:35:41;;;;;;;10.18;6.25;;;;;;;;;;5055903;28;20111;-79
2021/11/03 01:38:07;;;;;;;15.13;6.72;;;;;;;;;;5054244;28;20043;-79
2021/11/03 01:40:39;;;;;;;9.75;5.93;;;;;;;;;;5054362;28;20056;-79
2021/11/03 01:43:06;;;;;;;10.35;7.07;;;;;;;;;;5054166;28;20041;-79
2021/11/03 01:45:32;;;;;;;12.45;7.50;;;;;;;;;;5055335;28;20033;-79
2021/11/03 01:48:04;;;;;;;7.80;5.72;;;;;;;;;;5054093;28;20486;-79
2021/11/03 01:50:37;;;;;;;8.30;5.97;;;;;;;;;;5055260;28;20032;-79
2021/11/03 01:53:12;;;;;;;11.00;6.95;;;;;;;;;;5052211;28;20025;-79
2021/11/03 01:55:42;;;;;;;10.63;6.22;;;;;;;;;;5052856;28;20134;-79
2021/11/03 01:58:14;;;;;;;10.93;5.97;;;;;;;;;;5053602;28;20044;-79
2021/11/03 02:00:42;;;;;;;8.23;5.72;;;;;;;;;;5053670;28;20033;-79
2021/11/03 02:03:11;;;;;;;7.07;4.60;;;;;;;;;;5037286;28;20029;-79
2021/11/03 02:05:44;;;;;;;7.45;3.92;;;;;;;;;;5053683;28;20064;-79
2021/11/03 02:08:10;;;;;;;5.60;4.80;;;;;;;;;;5053009;28;20115;-78
2021/11/03 02:10:37;;;;;;;9.25;4.32;;;;;;;;;;5053868;28;20033;-79
2021/11/03 02:13:03;;;;;;;9.02;5.78;;;;;;;;;;5056883;28;20023;-79
2021/11/03 02:15:29;;;;;;;10.82;5.70;;;;;;;;;;5056382;28;20037;-79
2021/11/03 02:17:56;;;;;;;10.07;6.38;;;;;;;;;;5055308;28;20505;-79
2021/11/03 02:20:24;;;;;;;23.80;7.40;;;;;;;;;;5056658;28;20036;-79
2021/11/03 02:23:02;;;;;;;23.08;7.82;;;;;;;;;;5055700;28;20051;-79
2021/11/03 02:25:34;;;;;;;43.15;7.85;;;;;;;;;;5056515;28;20482;-79
2021/11/03 02:28:02;;;;;;;28.65;8.63;;;;;;;;;;5057294;28;20040;-80
2021/11/03 02:30:29;;;;;;;35.67;7.10;;;;;;;;;;5059191;28;20036;-79
2021/11/03 02:33:02;;;;;;;31.10;7.63;;;;;;;;;;5057901;28;20115;-79
2021/11/03 02:35:28;;;;;;;13.65;7.00;;;;;;;;;;5058254;28;20572;-79
2021/11/03 02:37:56;;;;;;;12.55;6.32;;;;;;;;;;5056577;28;20041;-79
2021/11/03 02:40:42;;;;;;;8.57;5.60;;;;;;;;;;5057332;28;20071;-79
2021/11/03 02:43:12;;;;;;;11.43;5.22;;;;;;;;;;5056696;28;20495;-80
2021/11/03 02:45:46;;;;;;;14.55;6.15;;;;;;;;;;5056947;28;20036;-79
2021/11/03 02:48:14;;;;;;;11.10;5.68;;;;;;;;;;5060919;28;20029;-80
2021/11/03 02:50:59;;;;;;;29.80;7.68;;;;;;;;;;5062559;28;20045;-79
2021/11/03 02:53:27;;;;;;;12.80;5.88;;;;;;;;;;5062932;28;20040;-80
2021/11/03 02:55:53;;;;;;;8.82;6.55;;;;;;;;;;5057363;28;20076;-80
2021/11/03 02:58:19;;;;;;;14.80;7.63;;;;;;;;;;5057759;28;20029;-79
2021/11/03 03:00:45;;;;;;;16.77;7.60;;;;;;;;;;5057295;28;20032;-79
2021/11/03 03:03:10;;;;;;;11.23;7.90;;;;;;;;;;5056500;28;20463;-79
2021/11/03 03:05:36;;;;;;;16.75;8.18;;;;;;;;;;5056208;28;20382;-80
2021/11/03 03:08:04;;;;;;;11.85;7.70;;;;;;;;;;5055568;28;20080;-80
2021/11/03 03:10:30;;;;;;;11.80;6.85;;;;;;;;;;5055486;28;20069;-79
2021/11/03 03:12:55;;;;;;;10.32;6.50;;;;;;;;;;5058343;28;20478;-79
2021/11/03 03:15:22;;;;;;;7.72;6.03;;;;;;;;;;5060868;28;20112;-79
2021/11/03 03:17:47;;;;;;;15.52;5.60;;;;;;;;;;5077362;28;20075;-80
2021/11/03 03:20:13;;;;;;;102.22;6.72;;;;;;;;;;5078806;28;20028;-80
2021/11/03 03:22:40;;;;;;;7.53;5.43;;;;;;;;;;5078909;28;20780;-78
2021/11/03 03:25:06;;;;;;;6.03;4.65;;;;;;;;;;5082556;28;20036;-78
2021/11/03 03:27:32;;;;;;;6.03;5.00;;;;;;;;;;5064404;28;20417;-78
2021/11/03 03:29:57;;;;;;;5.93;5.10;;;;;;;;;;5058768;28;20113;-78
2021/11/03 03:32:23;;;;;;;52.67;6.90;;;;;;;;;;5057747;28;20108;-78
2021/11/03 03:34:49;;;;;;;75.07;7.63;;;;;;;;;;5058458;28;20052;-78
2021/11/03 03:37:15;;;;;;;41.10;6.38;;;;;;;;;;5055807;28;20147;-77
2021/11/03 03:39:42;;;;;;;71.60;6.75;;;;;;;;;;5054587;28;20040;-77
2021/11/03 03:42:13;;;;;;;19.98;6.20;;;;;;;;;;5061582;28;20041;-78
2021/11/03 03:44:41;;;;;;;18.38;6.28;;;;;;;;;;5060129;28;20486;-79
2021/11/03 03:47:07;;;;;;;10.82;6.82;;;;;;;;;;5056626;28;20089;-76
2021/11/03 03:49:33;;;;;;;12.82;6.20;;;;;;;;;;5054091;28;20391;-77
2021/11/03 03:52:00;;;;;;;33.72;7.22;;;;;;;;;;5056060;28;20029;-78
2021/11/03 03:54:27;;;;;;;22.75;8.18;;;;;;;;;;5043689;28;20029;-78
2021/11/03 03:56:54;;;;;;;15.00;8.45;;;;;;;;;;5054617;28;20054;-78
2021/11/03 03:59:19;;;;;;;30.65;9.10;;;;;;;;;;5054512;28;20052;-77
2021/11/03 04:01:46;;;;;;;32.33;9.07;;;;;;;;;;5037174;28;20044;-76
2021/11/03 04:04:12;;;;;;;17.55;8.30;;;;;;;;;;5054050;28;20081;-77
2021/11/03 04:06:38;;;;;;;13.10;8.18;;;;;;;;;;5054113;28;20040;-77
2021/11/03 04:09:06;;;;;;;23.80;9.35;;;;;;;;;;5053311;28;20029;-77
2021/11/03 04:11:33;;;;;;;27.88;8.40;;;;;;;;;;5053735;28;20086;-77
2021/11/03 04:13:59;;;;;;;42.65;9.20;;;;;;;;;;5055207;28;20036;-77
2021/11/03 04:16:27;;;;;;;15.05;8.93;;;;;;;;;;5053468;28;20043;-77
2021/11/03 04:18:52;;;;;;;17.77;9.38;;;;;;;;;;5053534;28;20116;-77
2021/11/03 04:21:19;;;;;;;17.38;9.25;;;;;;;;;;5053701;28;20502;-77
2021/11/03 04:23:45;;;;;;;51.28;9.55;;;;;;;;;;5053110;28;20029;-77
2021/11/03 04:26:20;;;;;;;32.50;9.63;;;;;;;;;;5054875;28;20421;-77
2021/11/03 04:28:47;;;;;;;38.25;10.00;;;;;;;;;;5053621;28;20039;-77
2021/11/03 04:31:12;;;;;;;17.58;9.40;;;;;;;;;;5054506;28;20040;-77
2021/11/03 04:33:37;;;;;;;15.90;8.77;;;;;;;;;;5054695;28;20035;-77
2021/11/03 04:36:03;;;;;;;30.15;9.45;;;;;;;;;;5053373;28;20035;-77
2021/11/03 04:38:30;;;;;;;16.45;9.75;;;;;;;;;;5053282;28;20044;-77
2021/11/03 04:40:56;;;;;;;17.05;9.23;;;;;;;;;;5053116;28;20033;-77
2021/11/03 04:43:21;;;;;;;18.70;7.90;;;;;;;;;;5053395;28;20091;-77
2021/11/03 04:45:46;;;;;;;67.05;8.68;;;;;;;;;;5053210;28;20029;-77
2021/11/03 04:48:12;;;;;;;37.60;8.45;;;;;;;;;;5054362;28;20041;-77
2021/11/03 04:50:38;;;;;;;20.90;8.88;;;;;;;;;;5053135;28;20029;-77
2021/11/03 04:53:03;;;;;;;25.10;8.38;;;;;;;;;;5053087;28;20021;-77
2021/11/03 04:55:32;;;;;;;14.80;8.35;;;;;;;;;;5053242;28;20040;-77
2021/11/03 04:57:58;;;;;;;19.77;8.52;;;;;;;;;;5052635;28;20032;-77
2021/11/03 05:00:27;;;;;;;18.00;8.80;;;;;;;;;;5036376;28;20029;-77
2021/11/03 05:02:55;;;;;;;18.05;7.90;;;;;;;;;;5052458;28;20036;-77
2021/11/03 05:05:22;;;;;;;14.90;8.05;;;;;;;;;;5054258;28;20063;-77
2021/11/03 05:07:49;;;;;;;17.15;8.25;;;;;;;;;;5052992;28;20098;-77
2021/11/03 05:10:17;;;;;;;19.48;9.68;;;;;;;;;;5051712;28;20079;-77
2021/11/03 05:12:43;;;;;;;17.20;9.27;;;;;;;;;;5052449;28;20047;-77
2021/11/03 05:15:10;;;;;;;13.40;7.47;;;;;;;;;;5052747;28;20587;-77
2021/11/03 05:17:36;;;;;;;18.50;8.02;;;;;;;;;;5052313;28;20024;-77
2021/11/03 05:20:03;;;;;;;25.55;8.82;;;;;;;;;;5052614;28;20436;-77
2021/11/03 05:22:29;;;;;;;12.63;8.73;;;;;;;;;;5053733;28;20043;-77
2021/11/03 05:24:55;;;;;;;10.90;8.50;;;;;;;;;;5053865;28;20041;-77
2021/11/03 05:27:20;;;;;;;23.23;9.05;;;;;;;;;;5053779;28;20082;-77
2021/11/03 05:29:45;;;;;;;10.07;7.80;;;;;;;;;;5053539;28;20118;-77
2021/11/03 05:32:11;;;;;;;18.85;9.07;;;;;;;;;;5053759;28;20043;-77
2021/11/03 05:34:36;;;;;;;17.00;8.38;;;;;;;;;;5053544;28;20056;-77
2021/11/03 05:37:04;;;;;;;100.75;9.02;;;;;;;;;;5053597;28;20029;-77
2021/11/03 05:39:30;;;;;;;26.77;8.90;;;;;;;;;;5052306;28;20040;-77
2021/11/03 05:41:55;;;;;;;16.10;8.18;;;;;;;;;;5051608;28;20056;-77
2021/11/03 05:44:21;;;;;;;50.85;7.72;;;;;;;;;;5053104;28;20040;-77
2021/11/03 05:46:51;;;;;;;41.38;9.15;;;;;;;;;;5053476;28;20072;-77
2021/11/03 05:49:20;;;;;;;15.32;7.60;;;;;;;;;;5052396;28;20029;-77
2021/11/03 05:51:49;;;;;;;10.38;8.27;;;;;;;;;;5052921;28;20115;-77
2021/11/03 05:54:17;;;;;;;12.40;8.55;;;;;;;;;;5051827;28;20406;-77
2021/11/03 05:56:46;;;;;;;14.65;8.95;;;;;;;;;;5052120;28;20047;-77
2021/11/03 05:59:13;;;;;;;28.25;9.13;;;;;;;;;;5051728;28;20596;-77
2021/11/03 06:01:38;;;;;;;15.57;8.43;;;;;;;;;;5052971;28;20033;-77
2021/11/03 06:04:04;;;;;;;75.72;8.75;;;;;;;;;;5053156;28;20045;-77
2021/11/03 06:06:29;;;;;;;111.20;9.57;;;;;;;;;;5053185;28;20041;-77
2021/11/03 06:08:55;;;;;;;15.38;9.40;;;;;;;;;;5051860;28;20075;-77
2021/11/03 06:11:22;;;;;;;13.32;9.32;;;;;;;;;;5052935;28;20039;-77
2021/11/03 06:13:49;;;;;;;11.25;8.48;;;;;;;;;;5052551;28;20040;-77
2021/11/03 06:16:14;;;;;;;10.13;8.25;;;;;;;;;;5052462;28;20033;-77
2021/11/03 06:18:40;;;;;;;10.85;8.05;;;;;;;;;;5052478;28;20508;-77
2021/11/03 06:21:06;;;;;;;12.43;7.65;;;;;;;;;;5051718;28;20036;-77
2021/11/03 06:23:31;;;;;;;8.63;6.47;;;;;;;;;;5051895;28;20043;-77
2021/11/03 06:25:57;;;;;;;9.98;8.07;;;;;;;;;;5051900;28;20037;-77
2021/11/03 06:28:22;;;;;;;10.07;7.65;;;;;;;;;;5051888;28;20067;-77
2021/11/03 06:30:48;;;;;;;9.80;7.75;;;;;;;;;;5052955;28;20115;-77
2021/11/03 06:33:14;;;;;;;12.55;7.30;;;;;;;;;;5053120;28;20029;-77
2021/11/03 06:35:40;;;;;;;7.70;6.45;;;;;;;;;;5053244;28;20475;-77
2021/11/03 06:38:08;;;;;;;9.38;7.65;;;;;;;;;;5052533;28;20467;-77
2021/11/03 06:40:35;;;;;;;8.50;6.70;;;;;;;;;;5052729;28;20043;-77
2021/11/03 06:43:01;;;;;;;8.77;6.78;;;;;;;;;;5051610;28;20052;-77
2021/11/03 06:45:29;;;;;;;9.27;7.25;;;;;;;;;;5052746;28;20055;-77
2021/11/03 06:47:55;;;;;;;10.40;7.55;;;;;;;;;;5052777;28;20041;-77
2021/11/03 06:50:29;;;;;;;12.05;8.27;;;;;;;;;;5052699;28;20029;-77
2021/11/03 06:52:57;;;;;;;13.68;8.95;;;;;;;;;;5053695;28;20051;-77
2021/11/03 06:55:22;;;;;;;13.68;9.75;;;;;;;;;;5056544;28;20489;-77
2021/11/03 06:57:49;;;;;;;13.77;10.00;;;;;;;;;;5056457;28;20123;-77
2021/11/03 07:00:19;;;;;;;13.90;9.93;;;;;;;;;;5056565;28;20037;-77
2021/11/03 07:02:45;;;;;;;13.88;10.10;;;;;;;;;;5056619;28;20033;-77
2021/11/03 07:05:10;;;;;;;12.45;9.10;;;;;;;;;;5056660;28;20037;-77
2021/11/03 07:07:35;;;;;;;15.05;8.60;;;;;;;;;;5055253;28;20045;-77
2021/11/03 07:10:03;;;;;;;12.13;8.55;;;;;;;;;;5056302;28;20037;-77
2021/11/03 07:12:29;;;;;;;12.75;9.07;;;;;;;;;;5063304;28;20040;-80
2021/11/03 07:14:54;;;;;;;16.05;9.27;;;;;;;;;;5069103;28;20115;-80
2021/11/03 07:17:19;;;;;;;20.90;13.88;;;;;;;;;;5067497;28;20036;-78
2021/11/03 07:19:46;;;;;;;34.38;20.63;;;;;;;;;;5064843;28;20041;-77
2021/11/03 07:22:11;;;;;;;24.35;15.77;;;;;;;;;;5059183;28;20040;-78
2021/11/03 07:24:37;;;;;;;12.27;8.52;;;;;;;;;;5057610;28;20678;-77
2021/11/03 07:27:02;;;;;;;12.30;9.10;;;;;;;;;;5065101;28;20064;-79
2021/11/03 07:29:28;;;;;;;11.82;8.82;;;;;;;;;;5058125;28;20530;-77
2021/11/03 07:31:53;;;;;;;11.43;8.77;;;;;;;;;;5057072;28;20379;-77
2021/11/03 07:34:19;;;;;;;11.50;8.55;;;;;;;;;;5057429;28;20159;-78
2021/11/03 07:36:44;;;;;;;11.35;7.93;;;;;;;;;;5059060;28;20040;-78
2021/11/03 07:39:10;;;;;;;13.18;8.88;;;;;;;;;;5058618;28;20497;-77
2021/11/03 07:41:36;;;;;;;15.20;9.07;;;;;;;;;;5056285;28;20053;-77
2021/11/03 07:44:05;;;;;;;15.85;10.57;;;;;;;;;;5055576;28;20036;-78
2021/11/03 07:46:32;;;;;;;13.57;9.55;;;;;;;;;;5059090;28;20044;-83
2021/11/03 07:48:57;;;;;;;18.73;10.25;;;;;;;;;;5063348;28;20037;-82
2021/11/03 07:51:23;;;;;;;15.30;11.57;;;;;;;;;;5061710;28;20048;-83
2021/11/03 07:53:50;;;;;;;15.48;10.75;;;;;;;;;;5060154;28;20386;-81
2021/11/03 07:56:21;;;;;;;13.30;9.57;;;;;;;;;;5062373;28;20585;-80
2021/11/03 07:58:48;;;;;;;18.30;12.80;;;;;;;;;;5057633;28;20037;-80
2021/11/03 08:01:13;;;;;;;16.48;11.20;;;;;;;;;;5062625;28;20459;-78
2021/11/03 08:03:39;;;;;;;18.85;13.70;;;;;;;;;;5063538;28;20111;-80
2021/11/03 08:06:06;;;;;;;21.30;14.27;;;;;;;;;;5059889;28;20033;-79
2021/11/03 08:08:37;;;;;;;18.48;12.52;;;;;;;;;;5063480;28;20128;-79
2021/11/03 08:11:04;;;;;;;17.20;12.75;;;;;;;;;;5065614;28;20032;-80
2021/11/03 08:13:31;;;;;;;22.13;13.55;;;;;;;;;;5065229;28;20061;-80
2021/11/03 08:15:58;;;;;;;18.35;11.80;;;;;;;;;;5062693;28;20040;-79
2021/11/03 08:18:27;;;;;;;16.88;11.90;;;;;;;;;;5070167;28;20387;-79
2021/11/03 08:20:53;;;;;;;15.40;10.52;;;;;;;;;;5067952;28;20063;-80
2021/11/03 08:23:19;;;;;;;15.80;10.05;;;;;;;;;;5068583;28;20097;-80
2021/11/03 08:25:44;;;;;;;16.00;10.07;;;;;;;;;;5066527;28;20036;-79
2021/11/03 08:28:11;;;;;;;13.50;9.82;;;;;;;;;;5064557;28;20048;-78
2021/11/03 08:30:40;;;;;;;13.85;8.40;;;;;;;;;;5060197;28;20108;-80
2021/11/03 08:33:09;;;;;;;11.18;8.65;;;;;;;;;;5061592;28;20035;-78
2021/11/03 08:35:36;;;;;;;12.60;9.55;;;;;;;;;;5060993;28;20059;-78
2021/11/03 08:38:06;;;;;;;15.32;10.13;;;;;;;;;;5061968;28;20033;-78
2021/11/03 08:40:34;;;;;;;14.13;11.48;;;;;;;;;;5061410;28;20132;-78
2021/11/03 08:43:00;;;;;;;12.20;9.07;;;;;;;;;;5061271;28;20105;-78
2021/11/03 08:45:26;;;;;;;10.55;8.68;;;;;;;;;;5061804;28;20065;-78
2021/11/03 08:47:52;;;;;;;15.15;10.57;;;;;;;;;;5060379;28;20040;-78
2021/11/03 08:50:22;;;;;;;17.42;10.10;;;;;;;;;;5060214;28;20487;-78
2021/11/03 08:52:47;;;;;;;13.40;9.32;;;;;;;;;;5057221;28;20390;-80
2021/11/03 08:55:14;;;;;;;13.32;10.32;;;;;;;;;;5053935;28;20047;-78
2021/11/03 08:57:41;;;;;;;12.15;9.88;;;;;;;;;;5055237;28;20398;-82
2021/11/03 09:00:15;;;;;;;13.25;10.38;;;;;;;;;;5057554;28;20463;-80
2021/11/03 09:02:42;;;;;;;20.67;12.18;;;;;;;;;;5058690;28;20040;-81
2021/11/03 09:05:08;;;;;;;13.15;9.85;;;;;;;;;;5058631;28;20482;-80
2021/11/03 09:07:33;;;;;;;17.60;10.30;;;;;;;;;;5058769;28;20454;-80
2021/11/03 09:10:05;;;;;;;13.80;10.10;;;;;;;;;;5037149;28;20041;-76
2021/11/03 09:12:31;;;;;;;12.43;9.88;;;;;;;;;;5055211;28;20036;-78
2021/11/03 09:14:56;;;;;;;13.88;9.82;;;;;;;;;;5064570;28;20051;-80
2021/11/03 09:17:22;;;;;;;14.65;9.85;;;;;;;;;;5065031;28;20033;-78
2021/11/03 09:19:48;;;;;;;16.33;11.68;;;;;;;;;;5059236;28;20144;-79
2021/11/03 09:22:14;;;;;;;13.52;11.45;;;;;;;;;;5066302;28;20103;-79
2021/11/03 09:24:39;;;;;;;20.38;12.25;;;;;;;;;;5068162;28;20493;-79
2021/11/03 09:27:12;;;;;;;13.57;11.85;;;;;;;;;;5057613;28;20397;-78
2021/11/03 09:29:39;;;;;;;16.45;11.55;;;;;;;;;;5056494;28;20478;-78
2021/11/03 09:32:05;;;;;;;14.25;12.75;;;;;;;;;;5059927;28;20041;-78
2021/11/03 09:34:31;;;;;;;15.52;12.00;;;;;;;;;;5060765;28;20059;-78
2021/11/03 09:36:57;;;;;;;20.80;12.30;;;;;;;;;;5058149;28;20044;-78
2021/11/03 09:39:23;;;;;;;14.27;11.98;;;;;;;;;;5054080;28;20041;-76
2021/11/03 09:41:52;;;;;;;16.42;11.75;;;;;;;;;;5053195;28;20059;-77
2021/11/03 09:44:24;;;;;;;18.05;12.07;;;;;;;;;;5052474;28;20067;-77
2021/11/03 09:46:55;;;;;;;14.98;11.00;;;;;;;;;;5052323;28;20049;-77
2021/11/03 09:49:36;;;;;;;17.58;11.77;;;;;;;;;;5053696;28;20087;-77
2021/11/03 09:52:25;;;;;;;20.38;11.40;;;;;;;;;;5052277;28;20036;-77
2021/11/03 09:54:58;;;;;;;13.00;11.55;;;;;;;;;;5053012;28;20032;-77
2021/11/03 09:57:29;;;;;;;19.77;12.18;;;;;;;;;;5053204;28;20048;-77
2021/11/03 10:00:24;;;;;;;18.60;11.23;;;;;;;;;;5053121;28;20624;-76
2021/11/03 10:03:11;;;;;;;11.95;9.95;;;;;;;;;;5053247;28;20124;-77
2021/11/03 10:05:51;;;;;;;15.90;11.52;;;;;;;;;;5053458;28;20497;-76
2021/11/03 10:08:20;;;;;;;13.32;9.30;;;;;;;;;;5053287;28;20040;-76
2021/11/03 10:11:01;;;;;;;15.77;9.60;;;;;;;;;;5052363;28;20126;-76
2021/11/03 10:13:37;;;;;;;20.02;10.07;;;;;;;;;;5053233;28;20029;-76
2021/11/03 10:16:21;;;;;;;;;;;;;;;;;;5053770;28;20509;-76
2021/11/03 10:18:55;;;;;;;11.93;9.73;;;;;;;;;;5053329;28;19919;-76
2021/11/03 10:21:22;;;;;;;11.55;9.77;;;;;;;;;;5053200;28;20102;-76
2021/11/03 10:23:59;;;;;;;12.77;10.93;;;;;;;;;;5053180;28;20037;-76
2021/11/03 10:26:27;;;;;;;14.57;11.27;;;;;;;;;;5050609;28;20044;-76
2021/11/03 10:29:17;;;;;;;14.60;10.43;;;;;;;;;;5056217;28;20093;-77
2021/11/03 10:31:47;;;;;;;11.93;9.95;;;;;;;;;;5057280;28;20045;-76
2021/11/03 10:34:29;;;;;;;12.90;9.25;;;;;;;;;;5056036;28;20033;-78
2021/11/03 10:37:17;;;;;;;11.20;9.63;;;;;;;;;;5057489;28;20039;-76
2021/11/03 10:39:59;;;;;;;10.60;9.32;;;;;;;;;;5053341;28;20049;-76
2021/11/03 10:42:47;;;;;;;14.32;9.32;;;;;;;;;;5055963;28;20072;-77
2021/11/03 10:45:19;;;;;;;17.08;9.40;;;;;;;;;;5056938;28;20048;-77
2021/11/03 10:47:51;;;;;;;9.95;8.18;;;;;;;;;;5056698;28;20037;-77
2021/11/03 10:50:30;;;;;;;12.80;9.38;;;;;;;;;;5056772;28;20458;-77
2021/11/03 10:53:27;;;;;;;9.27;7.57;;;;;;;;;;5056696;28;20448;-77
2021/11/03 10:56:24;;;;;;;11.07;7.35;;;;;;;;;;5056402;28;20041;-77
2021/11/03 10:58:52;;;;;;;8.77;7.35;;;;;;;;;;5056423;28;20067;-77
2021/11/03 11:01:23;;;;;;;10.27;8.10;;;;;;;;;;5056776;28;20029;-77
2021/11/03 11:04:22;;;;;;;9.93;7.47;;;;;;;;;;5056298;28;20033;-77
2021/11/03 11:06:49;;;;;;;11.68;8.50;;;;;;;;;;5055086;28;20039;-77
2021/11/03 11:09:36;;;;;;;15.73;11.43;;;;;;;;;;5056319;28;20033;-77
2021/11/03 11:12:33;;;;;;;10.20;7.25;;;;;;;;;;5056127;28;20041;-77
2021/11/03 11:15:18;;;;;;;9.48;8.13;;;;;;;;;;5054948;28;20032;-77
2021/11/03 11:18:06;;;;;;;9.95;7.47;;;;;;;;;;5056286;28;20037;-76
2021/11/03 11:20:56;;;;;;;10.38;8.02;;;;;;;;;;5056351;28;20048;-77
2021/11/03 11:23:29;;;;;;;10.43;8.27;;;;;;;;;;5055865;28;20036;-77
2021/11/03 11:25:54;;;;;;;8.15;6.70;;;;;;;;;;5055809;28;20041;-77
2021/11/03 11:28:27;;;;;;;11.18;7.75;;;;;;;;;;5055699;28;20037;-77
2021/11/03 11:31:00;;;;;;;10.70;8.18;;;;;;;;;;5055748;28;20041;-77
2021/11/03 11:33:29;;;;;;;8.52;7.30;;;;;;;;;;5055996;28;20021;-77
2021/11/03 11:36:24;;;;;;;10.30;8.30;;;;;;;;;;5057423;28;20033;-77
2021/11/03 11:38:59;;;;;;;10.20;7.72;;;;;;;;;;5063313;28;20040;-79
2021/11/03 11:41:53;;;;;;;11.73;7.50;;;;;;;;;;5064897;28;20187;-81
2021/11/03 11:44:31;;;;;;;15.38;8.25;;;;;;;;;;5054684;28;20044;-81
2021/11/03 11:47:04;;;;;;;10.70;9.00;;;;;;;;;;5064850;28;20487;-81
2021/11/03 11:49:33;;;;;;;18.77;10.45;;;;;;;;;;5059756;28;20036;-77
2021/11/03 11:52:04;;;;;;;12.65;9.23;;;;;;;;;;5056981;28;20067;-77
2021/11/03 11:54:32;;;;;;;13.95;9.90;;;;;;;;;;5058929;28;20119;-78
2021/11/03 11:57:13;;;;;;;11.85;9.32;;;;;;;;;;5059412;28;20490;-78
2021/11/03 12:00:00;;;;;;;16.35;10.18;;;;;;;;;;5056981;28;20430;-78
2021/11/03 12:02:29;;;;;;;20.30;12.93;;;;;;;;;;5057797;28;20036;-78
2021/11/03 12:05:13;;;;;;;18.42;12.05;;;;;;;;;;5059224;28;20035;-78
2021/11/03 12:07:40;;;;;;;14.48;9.80;;;;;;;;;;5058929;28;20068;-78
2021/11/03 12:10:25;;;;;;;14.23;8.98;;;;;;;;;;5057708;28;20033;-78
2021/11/03 12:13:03;;;;;;;13.30;9.32;;;;;;;;;;5059488;28;20052;-78
2021/11/03 12:15:58;;;;;;;13.52;9.75;;;;;;;;;;5061030;28;20037;-78
2021/11/03 12:18:26;;;;;;;13.68;9.10;;;;;;;;;;5062138;28;20095;-78
2021/11/03 12:21:11;;;;;;;14.32;10.63;;;;;;;;;;5062183;28;20083;-78
2021/11/03 12:23:51;;;;;;;14.52;10.90;;;;;;;;;;5057905;28;20481;-78
2021/11/03 12:26:25;;;;;;;14.57;10.52;;;;;;;;;;5057905;28;20033;-78
2021/11/03 12:29:15;;;;;;;16.15;9.07;;;;;;;;;;5037067;28;20051;-78
2021/11/03 12:31:47;;;;;;;11.55;9.27;;;;;;;;;;5037439;28;20099;-78
2021/11/03 12:34:24;;;;;;;13.55;9.68;;;;;;;;;;5035986;28;20479;-78
2021/11/03 12:36:51;;;;;;;12.23;9.85;;;;;;;;;;5036328;28;20041;-78
2021/11/03 12:39:28;;;;;;;16.40;9.52;;;;;;;;;;5037266;28;20033;-78
2021/11/03 12:41:56;;;;;;;17.92;10.32;;;;;;;;;;5045136;28;20080;-78
2021/11/03 12:44:27;;;;;;;14.25;7.30;;;;;;;;;;5057499;28;20466;-78
2021/11/03 12:46:54;;;;;;;8.18;7.28;;;;;;;;;;5058442;28;20058;-78
2021/11/03 12:49:23;;;;;;;10.50;8.23;;;;;;;;;;5059297;28;20048;-78
2021/11/03 12:51:58;;;;;;;10.88;8.55;;;;;;;;;;5060517;28;20037;-78
2021/11/03 12:54:30;;;;;;;10.38;8.38;;;;;;;;;;5059860;28;20118;-78
2021/11/03 12:57:03;;;;;;;12.02;8.82;;;;;;;;;;5059589;28;20533;-78
2021/11/03 12:59:30;;;;;;;12.75;10.65;;;;;;;;;;5059129;28;20462;-78
2021/11/03 13:02:02;;;;;;;15.93;13.32;;;;;;;;;;5060125;28;20041;-78
2021/11/03 13:04:34;;;;;;;12.38;10.75;;;;;;;;;;5059699;28;20029;-78
2021/11/03 13:07:11;;;;;;;11.57;9.07;;;;;;;;;;5059968;28;20136;-78
2021/11/03 13:09:39;;;;;;;17.80;11.20;;;;;;;;;;5059716;28;20028;-78
2021/11/03 13:12:18;;;;;;;18.73;15.10;;;;;;;;;;5059396;28;20045;-78
2021/11/03 13:14:50;;;;;;;20.17;17.42;;;;;;;;;;5059516;28;20025;-78
2021/11/03 13:17:23;;;;;;;13.60;10.50;;;;;;;;;;5059136;28;20041;-78
2021/11/03 13:19:48;;;;;;;12.63;10.35;;;;;;;;;;5059510;28;20060;-78
2021/11/03 13:22:21;;;;;;;11.48;8.63;;;;;;;;;;5058246;28;20470;-78
2021/11/03 13:24:47;;;;;;;10.38;8.57;;;;;;;;;;5057463;28;20041;-78
2021/11/03 13:27:17;;;;;;;10.20;8.10;;;;;;;;;;5057428;28;20445;-78
2021/11/03 13:29:46;;;;;;;10.85;6.85;;;;;;;;;;5059505;28;20087;-78
2021/11/03 13:32:28;;;;;;;12.57;7.70;;;;;;;;;;5060229;28;20422;-78
2021/11/03 13:35:05;;;;;;;9.07;6.90;;;;;;;;;;5059718;28;20043;-78
2021/11/03 13:37:38;;;;;;;8.10;6.47;;;;;;;;;;5059711;28;20033;-78
2021/11/03 13:40:09;;;;;;;10.43;7.55;;;;;;;;;;5059396;28;20374;-78
2021/11/03 13:42:47;;;;;;;6.93;6.22;;;;;;;;;;5057748;28;20045;-78
2021/11/03 13:45:28;;;;;;;14.27;7.47;;;;;;;;;;5057811;28;20036;-78
2021/11/03 13:48:08;;;;;;;10.88;6.75;;;;;;;;;;5057698;28;20041;-78
2021/11/03 13:50:37;;;;;;;9.60;6.75;;;;;;;;;;5058188;28;20032;-78
2021/11/03 13:53:08;;;;;;;10.50;8.18;;;;;;;;;;5057589;28;20029;-78
2021/11/03 13:55:42;;;;;;;30.00;23.00;;;;;;;;;;5057543;28;20041;-78
2021/11/03 13:58:25;;;;;;;40.72;28.13;;;;;;;;;;5057349;28;20029;-77
2021/11/03 14:01:06;;;;;;;19.15;14.93;;;;;;;;;;5057953;28;20037;-78
2021/11/03 14:03:59;;;;;;;11.48;9.05;;;;;;;;;;5057438;28;20094;-78
2021/11/03 14:06:32;;;;;;;9.02;6.18;;;;;;;;;;5054897;28;20055;-78
2021/11/03 14:09:08;;;;;;;10.43;7.32;;;;;;;;;;5058011;28;20518;-78
2021/11/03 14:11:34;;;;;;;;;;;;;;;;;;5059466;28;20033;-78
2021/11/03 14:14:00;;;;;;;7.90;6.68;;;;;;;;;;5058272;28;19913;-78
2021/11/03 14:16:44;;;;;;;10.38;8.00;;;;;;;;;;5057967;28;20053;-77
2021/11/03 14:19:31;;;;;;;16.02;11.48;;;;;;;;;;5054684;28;20067;-77
2021/11/03 14:21:58;;;;;;;10.30;7.55;;;;;;;;;;5057825;28;20033;-77
2021/11/03 14:24:25;;;;;;;12.23;6.70;;;;;;;;;;5058329;28;20056;-77
2021/11/03 14:26:51;;;;;;;11.88;5.40;;;;;;;;;;5058085;28;20087;-77
2021/11/03 14:29:17;;;;;;;8.05;5.85;;;;;;;;;;5057106;28;20563;-77
2021/11/03 14:31:44;;;;;;;7.50;5.53;;;;;;;;;;5056762;28;20092;-77
2021/11/03 14:34:23;;;;;;;5.93;5.05;;;;;;;;;;5056147;28;20082;-76
2021/11/03 14:36:48;;;;;;;6.85;5.30;;;;;;;;;;5052541;28;20098;-77
2021/11/03 14:39:21;;;;;;;5.60;4.20;;;;;;;;;;5052499;28;20036;-77
2021/11/03 14:41:47;;;;;;;5.72;4.40;;;;;;;;;;5055194;28;20053;-78
2021/11/03 14:44:13;;;;;;;5.32;4.32;;;;;;;;;;5061729;28;20037;-78
2021/11/03 14:46:52;;;;;;;6.05;4.75;;;;;;;;;;5059047;28;20398;-79